Amaranth, Pennsylvania
Current Conditions -  °F | °C
As of 5:53 PM on Thursday 23 Oct 2014 (Local Time) from KHGR Reporting Station
Overcast Overcast  
Wind Chill: 63°   Ceiling: 6000
Heat Index: 63°   Visibility: 10mi
Dew Point: 41°   Wind: 12mph
Humidity: 45%   Direction: 320°NW
Pressure: 29.89"   Gusts: NA
Location:  39.7745°N, 78.2026°W
Report Text: KHGR 232153Z 32010KT 10SM OVC060 17/05 A2989 RMK AO2 SLP130 T01720050
Loading
Personal Weather Stations






























Interactive Weather Map
Tropical Storm Tracking
New forecast layout! Learn more

10-Day Weather Forecast

Advertisements
Track Severe Weather on mobile